Time;durP1;ratioP1;P1;durP2;ratioP2;P2;SDS_P1;SDS_P2;PMS_P1;PMS_P2;Temp;Humidity;BMP_temperature;BMP_pressure;BME280_temperature;BME280_humidity;BME280_pressure;Samples;Min_cycle;Max_cycle;Signal;HPM_P1;HPM_P2
2023/05/21 00:02:51;;;;;;;16.00;12.00;;;;;;;18.22;67.23;98838.69;7399339;39;20513;31
2023/05/21 00:08:23;;;;;;;15.33;11.93;;;;;;;18.16;66.99;98834.16;7347201;39;21383;31
2023/05/21 00:13:55;;;;;;;12.65;11.35;;;;;;;18.15;67.63;98833.31;7336975;39;20341;31
2023/05/21 00:19:26;;;;;;;14.50;11.40;;;;;;;18.14;68.15;98826.19;7346866;39;21348;31
2023/05/21 00:24:46;;;;;;;13.67;11.67;;;;;;;18.20;67.56;98829.91;7432733;39;20804;31
2023/05/21 00:30:08;;;;;;;14.20;11.60;;;;;;;18.15;67.77;98832.47;7429754;39;21279;31
2023/05/21 00:40:46;;;;;;;13.50;11.97;;;;;;;18.08;68.51;98820.78;7377373;39;20562;31
2023/05/21 00:46:06;;;;;;;13.60;12.20;;;;;;;18.15;67.52;98816.09;7352142;39;20671;31
2023/05/21 00:51:38;;;;;;;17.23;11.83;;;;;;;18.00;68.23;98800.06;7421287;39;21326;31
2023/05/21 00:57:11;;;;;;;15.80;12.45;;;;;;;18.00;68.72;98795.47;7385293;39;20266;31
2023/05/21 01:02:43;;;;;;;13.95;12.25;;;;;;;17.91;68.79;98794.06;7386774;39;20489;31
2023/05/21 01:08:19;;;;;;;15.70;12.60;;;;;;;17.92;68.97;98792.19;7402182;39;20367;31
2023/05/21 01:13:50;;;;;;;13.00;11.40;;;;;;;17.92;68.71;98786.72;7404022;39;20263;31
2023/05/21 01:19:22;;;;;;;14.90;12.40;;;;;;;17.91;68.79;98776.88;7431651;39;20373;31
2023/05/21 01:25:01;;;;;;;16.30;12.40;;;;;;;17.92;68.90;98770.38;7419628;39;20427;31
2023/05/21 01:30:30;;;;;;;14.90;12.30;;;;;;;17.94;68.86;98771.00;7380911;39;21204;31
2023/05/21 01:36:02;;;;;;;13.88;12.35;;;;;;;17.87;69.06;98762.84;7356475;39;21253;31
2023/05/21 01:41:35;;;;;;;13.13;11.67;;;;;;;17.88;69.83;98770.00;7344055;39;20265;31
2023/05/21 01:47:07;;;;;;;14.15;12.00;;;;;;;17.91;69.30;98761.34;7370779;39;20258;31
2023/05/21 01:52:40;;;;;;;13.47;11.90;;;;;;;17.91;69.16;98769.53;7398557;39;21309;31
2023/05/21 01:58:14;;;;;;;15.00;12.80;;;;;;;17.85;68.98;98758.69;7425802;39;20246;31
2023/05/21 02:03:48;;;;;;;14.47;12.67;;;;;;;17.73;70.18;98760.47;7465189;39;20239;31
2023/05/21 02:09:08;;;;;;;14.07;12.57;;;;;;;17.74;70.17;98760.25;7511796;38;20233;31
2023/05/21 02:14:40;;;;;;;17.00;12.73;;;;;;;17.65;70.48;98756.13;7440716;39;20400;31
2023/05/21 02:20:06;;;;;;;14.10;12.57;;;;;;;17.70;69.51;98759.03;7400750;39;20262;31
2023/05/21 02:25:30;;;;;;;17.00;12.50;;;;;;;17.62;70.55;98744.84;7399100;39;21332;31
2023/05/21 02:31:03;;;;;;;13.33;11.80;;;;;;;17.57;70.48;98742.75;7416234;39;20249;31
2023/05/21 02:36:35;;;;;;;13.53;12.10;;;;;;;17.55;70.91;98740.25;7410179;39;21312;31
2023/05/21 02:41:43;;;;;;;14.55;12.45;;;;;;;17.55;70.66;98737.50;7376014;39;20247;31
2023/05/21 02:47:17;;;;;;;15.43;12.20;;;;;;;17.46;71.52;98740.78;7364256;39;21345;31
2023/05/21 02:52:34;;;;;;;18.20;12.25;;;;;;;17.48;70.64;98733.19;7344730;39;20248;31
2023/05/21 02:57:51;;;;;;;14.40;12.20;;;;;;;17.49;70.51;98740.31;7357560;39;20491;31
2023/05/21 03:03:28;;;;;;;15.80;12.40;;;;;;;17.46;71.12;98736.13;7357862;39;20329;31
2023/05/21 03:08:46;;;;;;;13.97;11.93;;;;;;;17.43;71.36;98741.19;7378772;39;20244;31
2023/05/21 03:14:02;;;;;;;15.65;11.90;;;;;;;17.41;71.00;98735.97;7415929;39;20288;31
2023/05/21 03:19:35;;;;;;;15.00;12.05;;;;;;;17.40;71.42;98733.47;7427921;39;20419;31
2023/05/21 03:25:08;;;;;;;17.10;12.80;;;;;;;17.40;70.93;98726.13;7198870;39;20379;31
2023/05/21 03:30:39;;;;;;;14.35;12.50;;;;;;;17.32;71.82;98729.13;7379614;39;20346;31
2023/05/21 03:36:10;;;;;;;17.25;12.45;;;;;;;17.31;72.40;98721.16;7380222;39;20383;31
2023/05/21 03:41:42;;;;;;;13.75;12.00;;;;;;;17.32;71.59;98720.97;7387085;39;21448;31
2023/05/21 03:47:00;;;;;;;13.47;11.93;;;;;;;17.37;71.22;98742.09;7396213;39;21174;31
2023/05/21 03:52:28;;;;;;;15.27;11.87;;;;;;;17.39;71.01;98734.50;7448602;39;21194;31
2023/05/21 03:58:01;;;;;;;14.77;12.77;;;;;;;17.42;71.80;98745.00;7477181;38;21289;31
2023/05/21 04:08:38;;;;;;;14.67;11.33;;;;;;;17.41;71.79;98746.88;7422375;39;20289;31
2023/05/21 04:19:00;;;;;;;14.30;12.67;;;;;;;17.37;70.90;98753.84;7429376;39;20746;31
2023/05/21 04:24:33;;;;;;;14.27;12.77;;;;;;;17.26;71.94;98750.97;7484739;39;21275;31
2023/05/21 04:29:54;;;;;;;15.03;12.97;;;;;;;17.30;72.08;98763.91;7449189;39;20309;31
2023/05/21 04:35:26;;;;;;;15.75;12.45;;;;;;;17.23;72.81;98767.75;7468573;39;20343;31
2023/05/21 04:41:02;;;;;;;17.83;11.93;;;;;;;17.25;72.17;98766.47;7442587;39;20372;31
2023/05/21 04:46:17;;;;;;;13.27;11.63;;;;;;;17.38;71.90;98763.66;7431293;39;20258;31
2023/05/21 04:51:33;;;;;;;13.30;11.85;;;;;;;17.53;71.96;98772.34;7380570;39;21217;31
2023/05/21 04:57:05;;;;;;;13.23;11.83;;;;;;;17.59;71.91;98762.50;7397738;39;20252;31
2023/05/21 05:02:37;;;;;;;14.50;11.75;;;;;;;17.65;71.44;98769.75;7388081;39;21376;31
2023/05/21 05:08:10;;;;;;;14.93;11.07;;;;;;;17.72;71.91;98769.72;7413933;39;20246;31
2023/05/21 05:13:45;;;;;;;15.90;11.45;;;;;;;17.77;71.81;98775.34;7389542;39;20293;31
2023/05/21 05:19:18;;;;;;;13.20;11.60;;;;;;;17.92;71.88;98770.38;7397301;39;20323;31
2023/05/21 05:24:49;;;;;;;15.95;11.90;;;;;;;17.94;71.73;98774.56;7421146;39;20247;31
2023/05/21 05:30:26;;;;;;;14.30;11.80;;;;;;;17.99;71.80;98765.66;7387535;39;22030;31
2023/05/21 05:41:03;;;;;;;13.60;11.80;;;;;;;18.22;71.61;98767.75;7440663;39;20270;31
2023/05/21 05:46:36;;;;;;;13.40;11.60;;;;;;;18.20;72.20;98764.44;7402477;39;20277;31
2023/05/21 05:51:53;;;;;;;13.53;11.40;;;;;;;18.31;71.36;98774.59;7380722;39;21374;31
2023/05/21 06:02:34;;;;;;;13.77;10.98;;;;;;;18.49;71.42;98769.13;7464842;38;20383;31
2023/05/21 06:08:09;;;;;;;13.20;11.20;;;;;;;18.55;70.82;98767.44;7495275;38;20336;31
2023/05/21 06:13:41;;;;;;;16.40;11.40;;;;;;;18.59;71.56;98766.75;7419799;39;21267;31
2023/05/21 06:24:20;;;;;;;14.95;11.65;;;;;;;18.75;70.91;98777.03;7422480;39;20390;31
2023/05/21 06:29:39;;;;;;;11.85;10.60;;;;;;;18.83;70.48;98773.97;7397126;39;20232;31
2023/05/21 06:35:10;;;;;;;12.05;10.73;;;;;;;18.88;70.12;98779.59;7363411;39;21306;31
2023/05/21 06:40:43;;;;;;;14.93;11.00;;;;;;;18.93;70.36;98767.97;7441971;39;20239;31
2023/05/21 06:46:00;;;;;;;12.47;11.17;;;;;;;19.01;69.46;98785.94;7378420;39;21475;31
2023/05/21 06:51:33;;;;;;;12.33;11.03;;;;;;;19.05;70.06;98789.87;7379586;39;21324;31
2023/05/21 06:57:04;;;;;;;12.73;10.80;;;;;;;19.10;69.69;98793.59;7338977;39;21231;31
2023/05/21 07:02:21;;;;;;;12.53;10.87;;;;;;;19.26;69.99;98789.37;7305455;39;21237;31
2023/05/21 07:07:54;;;;;;;14.05;10.73;;;;;;;19.33;69.46;98785.47;7356161;39;21232;31
2023/05/21 07:13:28;;;;;;;14.30;11.15;;;;;;;19.35;69.57;98790.69;7369255;39;20324;31
2023/05/21 07:19:00;;;;;;;13.05;10.70;;;;;;;19.43;69.74;98793.16;7427778;39;20482;31
2023/05/21 07:24:17;;;;;;;14.20;10.75;;;;;;;19.60;68.03;98796.87;7401462;39;20414;31
2023/05/21 07:29:51;;;;;;;13.83;11.47;;;;;;;19.61;68.81;98794.97;7407458;39;21337;31
2023/05/21 07:35:21;;;;;;;11.57;10.30;;;;;;;19.83;68.21;98796.09;7400792;39;21242;31
2023/05/21 07:40:38;;;;;;;12.80;10.90;;;;;;;19.92;67.58;98791.09;7364042;39;21343;31
2023/05/21 07:46:14;;;;;;;11.23;10.03;;;;;;;20.11;67.53;98795.38;7337823;39;20245;31
2023/05/21 07:56:35;;;;;;;11.40;9.70;;;;;;;20.43;65.66;98783.03;7359676;39;20263;31
2023/05/21 08:02:11;;;;;;;11.10;9.80;;;;;;;20.50;64.30;98780.97;7386346;38;20262;31
2023/05/21 08:07:46;;;;;;;11.32;9.40;;;;;;;20.59;64.31;98778.69;7487565;39;20264;31
2023/05/21 08:13:05;;;;;;;12.06;10.20;;;;;;;20.72;64.00;98769.38;7490873;39;20238;31
2023/05/21 08:18:41;;;;;;;10.52;9.38;;;;;;;20.87;63.01;98776.03;7491069;39;20248;31
2023/05/21 08:24:13;;;;;;;10.83;9.73;;;;;;;21.12;61.19;98775.69;7440049;39;20285;31
2023/05/21 08:29:45;;;;;;;10.70;9.60;;;;;;;21.35;61.51;98772.88;7378287;39;21202;31
2023/05/21 08:35:22;;;;;;;11.48;9.32;;;;;;;21.69;60.73;98779.22;7400313;39;21151;31
2023/05/21 08:40:40;;;;;;;11.00;9.80;;;;;;;21.83;60.39;98771.50;7413120;39;21287;31
2023/05/21 08:46:15;;;;;;;11.48;10.07;;;;;;;21.89;58.95;98781.50;7464827;39;20503;31
2023/05/21 08:51:46;;;;;;;10.40;8.88;;;;;;;21.94;60.00;98779.66;7452901;39;20238;31
2023/05/21 08:57:22;;;;;;;13.13;10.30;;;;;;;21.99;60.34;98776.16;7359846;39;21296;31
2023/05/21 09:08:03;;;;;;;11.25;9.85;;;;;;;22.35;58.66;98780.28;7405610;39;20374;31
2023/05/21 09:18:26;;;;;;;14.20;10.80;;;;;;;22.76;57.69;98785.28;7438954;39;20254;31
2023/05/21 09:23:55;;;;;;;11.25;9.48;;;;;;;22.96;57.81;98775.63;7424257;39;20238;31
2023/05/21 09:29:28;;;;;;;14.80;10.60;;;;;;;23.17;56.37;98778.34;7404539;39;21220;31
2023/05/21 09:34:45;;;;;;;12.82;10.63;;;;;;;23.33;56.34;98780.19;7401283;39;21223;31
2023/05/21 09:40:19;;;;;;;11.45;10.20;;;;;;;23.30;57.35;98786.19;7379737;39;21192;31
2023/05/21 09:45:52;;;;;;;11.55;10.35;;;;;;;23.36;56.63;98787.91;7367374;39;21217;31
2023/05/21 09:51:24;;;;;;;13.48;10.02;;;;;;;23.39;56.30;98780.25;7380744;39;21286;31
2023/05/21 09:56:58;;;;;;;13.25;10.75;;;;;;;23.45;56.35;98776.47;7378951;39;21218;31
2023/05/21 10:02:34;;;;;;;11.75;9.90;;;;;;;23.55;56.43;98771.91;7366337;39;21302;31
2023/05/21 10:08:07;;;;;;;11.60;10.07;;;;;;;23.69;54.97;98770.41;7173036;39;20238;31
2023/05/21 10:13:40;;;;;;;13.05;10.45;;;;;;;23.55;55.94;98774.66;7439198;39;21308;31
2023/05/21 10:19:12;;;;;;;13.23;10.63;;;;;;;23.69;55.49;98772.31;7412278;39;20445;31
2023/05/21 10:24:45;;;;;;;11.98;10.10;;;;;;;23.76;54.77;98772.91;7378099;39;21318;31
2023/05/21 10:30:19;;;;;;;10.60;9.48;;;;;;;23.69;54.40;98775.06;7390413;39;20236;31
2023/05/21 10:35:54;;;;;;;11.27;9.00;;;;;;;23.78;54.24;98765.25;7374605;39;21266;31
2023/05/21 10:41:27;;;;;;;11.30;10.20;;;;;;;23.77;53.61;98771.81;7444899;39;21293;31
2023/05/21 10:52:05;;;;;;;10.70;9.60;;;;;;;24.01;54.18;98764.84;7423262;39;20266;31
2023/05/21 11:02:41;;;;;;;12.43;9.63;;;;;;;24.14;54.87;98761.63;7398654;39;20537;31
2023/05/21 11:08:14;;;;;;;11.63;9.57;;;;;;;24.28;53.15;98759.28;7379360;39;21236;31
2023/05/21 11:19:15;;;;;;;10.98;9.88;;;;;;;24.46;54.06;98755.25;7398833;39;20334;31
2023/05/21 11:24:55;;;;;;;9.90;9.00;;;;;;;24.83;52.42;98758.75;7488586;38;20249;31
2023/05/21 11:30:30;;;;;;;10.30;9.20;;;;;;;24.88;51.55;98756.03;7428524;39;20293;31
2023/05/21 11:36:13;;;;;;;10.48;9.23;;;;;;;24.78;51.59;98755.97;7440527;39;21200;31
2023/05/21 11:41:53;;;;;;;11.17;9.57;;;;;;;24.73;52.23;98758.72;7359046;39;20996;31
2023/05/21 11:47:28;;;;;;;10.85;9.85;;;;;;;24.72;52.26;98761.72;7380982;39;21237;31
2023/05/21 11:53:00;;;;;;;11.70;9.30;;;;;;;24.63;51.66;98758.66;7381283;39;21121;31
2023/05/21 11:58:34;;;;;;;11.27;9.55;;;;;;;24.58;52.23;98764.13;7278621;40;21215;31
2023/05/21 12:03:51;;;;;;;11.43;9.73;;;;;;;24.58;51.52;98769.66;7313412;39;20395;31
2023/05/21 12:09:24;;;;;;;10.50;9.13;;;;;;;24.62;52.96;98757.81;7354695;39;21290;31
2023/05/21 12:15:00;;;;;;;11.55;10.35;;;;;;;24.82;51.93;98761.78;7457632;39;21208;31
2023/05/21 12:20:31;;;;;;;10.95;9.52;;;;;;;24.93;51.96;98764.31;7466699;39;21278;31
2023/05/21 12:26:04;;;;;;;11.20;9.90;;;;;;;25.01;51.14;98758.28;7488836;38;21267;31
2023/05/21 12:31:37;;;;;;;10.00;9.10;;;;;;;25.09;50.52;98755.03;7441097;39;21260;31
2023/05/21 12:37:09;;;;;;;10.13;9.02;;;;;;;25.35;50.67;98755.91;7366175;39;20382;31
2023/05/21 12:42:44;;;;;;;12.30;9.00;;;;;;;25.49;49.40;98751.50;7379805;39;21280;31
2023/05/21 12:48:17;;;;;;;10.80;8.60;;;;;;;25.82;50.67;98749.34;7319153;39;21196;31
2023/05/21 12:53:52;;;;;;;10.15;8.95;;;;;;;25.97;49.34;98754.88;7328717;39;21201;31
2023/05/21 12:59:27;;;;;;;9.90;8.70;;;;;;;26.09;49.69;98754.56;7417889;39;20294;31
2023/05/21 13:05:00;;;;;;;11.57;8.65;;;;;;;26.17;49.16;98757.59;7359548;39;20288;31
2023/05/21 13:10:33;;;;;;;9.45;8.55;;;;;;;26.15;48.89;98747.94;7391454;39;21262;31
2023/05/21 13:16:05;;;;;;;9.20;8.30;;;;;;;26.09;49.39;98755.41;7377311;39;21182;31
2023/05/21 13:21:39;;;;;;;10.20;8.50;;;;;;;25.98;49.65;98746.28;7384923;39;21387;31
2023/05/21 13:27:11;;;;;;;10.23;9.10;;;;;;;25.97;49.06;98744.66;7440355;39;20259;31
2023/05/21 13:37:48;;;;;;;9.55;8.65;;;;;;;26.24;49.35;98732.50;7444783;39;20363;31
2023/05/21 13:43:05;;;;;;;11.25;9.50;;;;;;;26.35;48.82;98745.16;7428703;39;21468;31
2023/05/21 13:48:22;;;;;;;10.90;9.20;;;;;;;26.45;49.85;98739.62;7461403;39;20802;31
2023/05/21 13:53:59;;;;;;;9.68;8.65;;;;;;;26.65;49.06;98730.41;7463963;39;20775;31
2023/05/21 13:59:31;;;;;;;12.05;9.20;;;;;;;26.46;48.93;98744.03;7430270;39;21757;31
2023/05/21 14:10:12;;;;;;;9.85;8.85;;;;;;;26.40;48.91;98731.34;7418496;39;20386;31
2023/05/21 14:15:45;;;;;;;11.15;9.10;;;;;;;26.49;49.53;98732.41;7439512;39;21151;31
2023/05/21 14:21:21;;;;;;;10.05;9.02;;;;;;;26.30;48.71;98732.19;7493936;38;20220;31
2023/05/21 14:26:57;;;;;;;10.90;8.20;;;;;;;26.16;48.84;98727.47;7482507;38;21339;31
2023/05/21 14:32:17;;;;;;;9.77;8.82;;;;;;;26.15;49.01;98732.19;7484522;39;21333;31
2023/05/21 14:37:34;;;;;;;9.20;8.30;;;;;;;26.22;49.30;98737.47;7483660;39;21184;31
2023/05/21 14:43:11;;;;;;;10.93;8.37;;;;;;;26.09;48.94;98726.94;7492727;38;20223;31
2023/05/21 14:48:45;;;;;;;8.95;8.00;;;;;;;26.15;49.64;98725.84;7482330;39;20239;31
2023/05/21 14:54:00;;;;;;;9.40;8.50;;;;;;;26.09;50.47;98713.13;7441211;39;21208;31
2023/05/21 14:59:34;;;;;;;9.20;7.90;;;;;;;26.00;49.52;98705.41;7398817;39;21235;31
2023/05/21 15:10:00;;;;;;;9.30;8.30;;;;;;;26.06;49.85;98705.41;7419553;39;20255;31
2023/05/21 15:20:40;;;;;;;9.10;7.90;;;;;;;26.04;49.08;98694.62;7515602;38;20264;31
2023/05/21 15:31:06;;;;;;;12.90;8.40;;;;;;;26.19;49.43;98694.62;7440482;39;20413;31
2023/05/21 15:36:42;;;;;;;8.50;7.70;;;;;;;26.26;49.33;98695.16;7397980;39;20288;31
2023/05/21 15:42:15;;;;;;;10.73;8.45;;;;;;;26.27;48.86;98696.81;7351188;39;20275;31
2023/05/21 15:52:53;;;;;;;8.25;7.45;;;;;;;26.58;47.57;98694.78;7435280;39;20337;31
2023/05/21 16:03:16;;;;;;;5.40;4.90;;;;;;;26.48;43.08;98700.34;7442261;39;20265;31
2023/05/21 16:08:49;;;;;;;5.30;4.80;;;;;;;26.50;42.15;98700.06;7484868;38;21424;31
2023/05/21 16:14:07;;;;;;;7.03;4.68;;;;;;;26.63;40.91;98703.06;7420996;39;20254;31
2023/05/21 16:19:24;;;;;;;5.20;4.70;;;;;;;26.72;41.48;98698.56;7442234;39;20262;31
2023/05/21 16:24:58;;;;;;;5.75;4.95;;;;;;;26.64;41.15;98706.63;7421696;39;21333;31
2023/05/21 16:35:20;;;;;;;6.85;4.80;;;;;;;26.73;41.50;98702.16;7441077;39;20254;31
2023/05/21 16:40:53;;;;;;;8.95;4.90;;;;;;;26.74;41.12;98693.59;7443917;39;21447;31
2023/05/21 16:51:44;;;;;;;7.27;5.20;;;;;;;26.71;41.63;98682.28;7418889;39;20358;31
2023/05/21 16:57:02;;;;;;;5.20;4.70;;;;;;;26.59;40.97;98685.34;7400255;39;21304;31
2023/05/21 17:02:38;;;;;;;5.20;4.70;;;;;;;26.51;41.50;98679.59;7337014;39;20437;31
2023/05/21 17:13:14;;;;;;;5.80;5.05;;;;;;;26.36;41.17;98686.03;7324087;39;21250;31
2023/05/21 17:18:48;;;;;;;5.35;4.62;;;;;;;26.12;39.23;98680.25;7157703;39;20252;31
2023/05/21 17:24:06;;;;;;;6.78;4.90;;;;;;;26.05;42.29;98692.69;7401602;39;21277;31
2023/05/21 17:29:24;;;;;;;6.20;5.60;;;;;;;26.02;42.32;98688.56;7386640;39;21375;31
2023/05/21 17:34:59;;;;;;;6.90;5.05;;;;;;;25.88;42.04;98688.31;7509313;38;20246;31
2023/05/21 17:40:20;;;;;;;6.45;5.32;;;;;;;25.80;42.91;98691.63;7438207;39;21362;31
2023/05/21 17:45:35;;;;;;;6.20;5.60;;;;;;;25.84;45.12;98691.91;7443479;39;20332;31
2023/05/21 17:51:08;;;;;;;7.35;5.75;;;;;;;25.81;46.43;98689.69;7420292;39;21230;31
2023/05/21 17:56:44;;;;;;;7.00;6.30;;;;;;;25.78;45.37;98687.50;7436180;39;20246;31
2023/05/21 18:02:02;;;;;;;6.68;5.97;;;;;;;25.75;46.33;98686.12;7462518;39;20430;31
2023/05/21 18:07:35;;;;;;;6.60;6.00;;;;;;;25.69;45.77;98687.22;7419930;39;20267;31
2023/05/21 18:12:53;;;;;;;11.85;9.33;;;;;;;25.62;47.13;98689.44;7398707;39;21199;31
2023/05/21 18:18:49;;;;;;;6.75;5.85;;;;;;;25.47;47.76;98684.72;7396287;39;21206;31
2023/05/21 18:24:38;;;;;;;6.78;6.10;;;;;;;25.34;48.00;98699.06;7417785;39;20378;31
2023/05/21 18:34:59;;;;;;;6.90;6.20;;;;;;;25.08;50.54;98700.13;7363327;39;20267;31
2023/05/21 18:45:37;;;;;;;8.75;7.00;;;;;;;24.62;52.33;98696.34;7469079;38;20262;31
2023/05/21 18:56:03;;;;;;;7.53;6.82;;;;;;;24.15;54.31;98700.00;7494342;38;20257;31
2023/05/21 19:01:38;;;;;;;7.95;7.10;;;;;;;23.89;54.75;98703.66;7512543;38;20229;31
2023/05/21 19:06:55;;;;;;;9.57;7.13;;;;;;;23.68;54.63;98713.69;7467028;39;20364;31
2023/05/21 19:12:30;;;;;;;8.07;7.25;;;;;;;23.46;54.52;98703.84;7488568;39;20236;31
2023/05/21 19:18:02;;;;;;;9.30;6.90;;;;;;;23.31;54.42;98712.75;7447324;39;20241;31
2023/05/21 19:23:38;;;;;;;8.03;7.03;;;;;;;23.18;55.01;98718.69;7458853;39;20408;31
2023/05/21 19:28:55;;;;;;;7.60;6.80;;;;;;;23.14;55.00;98720.28;7442604;39;20378;31
2023/05/21 19:34:28;;;;;;;12.75;9.15;;;;;;;23.09;56.16;98715.56;7441346;39;21196;31
2023/05/21 19:44:50;;;;;;;9.68;7.55;;;;;;;22.89;56.74;98721.69;7448038;39;20273;31
2023/05/21 19:55:34;;;;;;;8.73;7.83;;;;;;;22.62;57.78;98737.25;7440974;39;20443;31
2023/05/21 20:06:07;;;;;;;8.55;7.40;;;;;;;22.28;59.17;98742.03;7431485;39;20276;31
2023/05/21 20:11:43;;;;;;;8.27;7.47;;;;;;;22.14;58.48;98742.63;7461586;39;21501;31
2023/05/21 20:17:17;;;;;;;10.50;8.10;;;;;;;22.04;58.89;98751.56;7458073;38;21388;31
2023/05/21 20:22:32;;;;;;;9.18;8.00;;;;;;;;;;7426129;39;21189;31
2023/05/21 20:28:04;;;;;;;8.50;7.30;;;;;;;21.80;59.48;98750.87;7437151;39;21352;31
2023/05/21 20:33:35;;;;;;;9.10;7.20;;;;;;;21.76;58.85;98748.91;7347402;39;21349;31
2023/05/21 20:38:52;;;;;;;8.05;7.20;;;;;;;21.77;58.97;98751.37;7372702;39;21253;31
2023/05/21 20:44:27;;;;;;;7.90;7.00;;;;;;;21.64;58.98;98751.69;7402598;39;21422;31
2023/05/21 20:49:44;;;;;;;8.18;7.37;;;;;;;21.50;59.16;98753.94;7419576;39;21304;31
2023/05/21 20:55:15;;;;;;;12.07;7.20;;;;;;;21.28;60.00;98749.44;7415542;39;20242;31
2023/05/21 21:00:49;;;;;;;10.22;7.75;;;;;;;21.10;60.61;98750.44;7378681;39;20329;31
2023/05/21 21:06:08;;;;;;;8.32;7.47;;;;;;;21.03;60.39;98755.22;7357261;39;20337;31
2023/05/21 21:11:25;;;;;;;9.00;7.70;;;;;;;21.09;60.77;98755.09;7399674;39;21249;31
2023/05/21 21:16:56;;;;;;;10.15;7.85;;;;;;;21.07;60.17;98751.75;7377298;39;20468;31
2023/05/21 21:22:28;;;;;;;9.10;7.50;;;;;;;20.92;61.20;98753.38;7444348;39;21317;31
2023/05/21 21:28:01;;;;;;;9.85;8.30;;;;;;;20.77;61.42;98761.28;7449755;39;20444;31
2023/05/21 21:33:35;;;;;;;9.73;8.27;;;;;;;20.81;60.85;98757.81;7395918;39;21475;31
2023/05/21 21:44:12;;;;;;;9.68;7.65;;;;;;;20.91;60.71;98752.53;7417372;39;20270;31
2023/05/21 21:54:50;;;;;;;10.53;8.37;;;;;;;20.73;61.30;98747.25;7404512;39;20258;31
2023/05/21 22:05:30;;;;;;;8.27;7.43;;;;;;;20.58;61.04;98750.47;7424859;39;20277;31
2023/05/21 22:11:00;;;;;;;8.57;7.75;;;;;;;20.43;62.25;98747.44;7418772;39;21176;31
2023/05/21 22:16:32;;;;;;;9.85;8.15;;;;;;;20.38;62.93;98750.06;7378987;39;20269;31
2023/05/21 22:22:04;;;;;;;8.90;8.00;;;;;;;20.31;63.22;98738.41;7467423;39;21263;31
2023/05/21 22:27:39;;;;;;;9.52;7.55;;;;;;;20.12;62.29;98745.91;7420482;39;21486;31
2023/05/21 22:33:14;;;;;;;9.27;7.90;;;;;;;20.08;63.55;98749.34;7487209;38;20241;31
2023/05/21 22:38:49;;;;;;;8.65;7.57;;;;;;;20.07;63.44;98747.69;7508917;38;20366;31
2023/05/21 22:44:24;;;;;;;8.90;7.98;;;;;;;20.01;63.57;98738.50;7509501;38;20323;31
2023/05/21 22:49:45;;;;;;;9.05;7.75;;;;;;;19.93;62.87;98738.03;7515397;38;20338;31
2023/05/21 22:55:16;;;;;;;8.68;7.70;;;;;;;19.83;63.78;98737.81;7419733;39;20250;31
2023/05/21 23:00:49;;;;;;;8.25;7.45;;;;;;;19.60;63.89;98739.47;7420585;39;21204;31
2023/05/21 23:06:07;;;;;;;11.75;8.20;;;;;;;19.35;65.19;98746.97;7421242;39;21115;31
2023/05/21 23:11:25;;;;;;;8.30;7.40;;;;;;;19.25;65.13;98746.72;7360062;39;20298;31
2023/05/21 23:17:00;;;;;;;8.87;7.83;;;;;;;19.23;65.87;98738.75;7398401;39;20331;31
2023/05/21 23:22:29;;;;;;;8.85;7.95;;;;;;;19.29;65.02;98742.44;7361847;39;20391;31
2023/05/21 23:27:50;;;;;;;9.57;8.00;;;;;;;19.19;64.82;98737.53;7339060;39;21012;31
2023/05/21 23:33:22;;;;;;;8.90;8.00;;;;;;;19.16;65.27;98735.28;7374634;39;20250;31
2023/05/21 23:38:54;;;;;;;8.75;7.85;;;;;;;19.23;64.77;98737.91;7398437;39;21215;31
2023/05/21 23:49:34;;;;;;;10.27;8.43;;;;;;;18.91;66.15;98740.06;7460693;38;20317;31
2023/05/21 23:59:56;;;;;;;9.17;8.23;;;;;;;18.88;66.01;98737.78;7463504;39;20259;31
